TFM - Tactical Decision Aid (Experimental) INFO Settings
ID: Runway Winds: CIG/VIS Threshold: METAR Board: Map:

KIAD - Washington-Dulles Intl

Updated at: 0029 UTC 07 May 2016
Latest TAF at: 2320 UTC 06 May 2016

TAF Board

Time0026Z07/01Z07/02Z07/03Z07/04Z07/05Z07/06Z07/07Z07/08Z07/09Z07/10Z07/11Z07/12Z07/13Z
TypeOBSPRVLPRVLPRVLPRVLPRVLPRVLPRVLPRVLPRVLPRVLPRVLPRVLPRVL
VIS3332222>6>6>6>6>6>6>6
CIG1320201010101015151515101025
CoverOVCOVCOVCOVCOVCOVCOVCOVCOVCOVCOVCBKNBKNBKN
FltCatMVFRMVFRMVFRIFRIFRIFRIFRMVFRMVFRMVFRMVFRMVFRMVFRMVFR
WX-DZ BR-SHRA-SHRABRBRBRBR--------------
WDir330330330330330330330VRBVRBVRBVRB340340330
WSpd75555553333556
WGst----------------------------
TAF
KIAD 062320Z 0700/0806 33005KT 3SM -SHRA OVC020
  FM070300 33005KT 2SM BR OVC010
  FM070700 VRB03KT P6SM OVC015
  FM071100 34005KT P6SM BKN010
  FM071300 33006KT P6SM BKN025
  FM071600 32007KT P6SM BKN050
  FM072100 25005KT P6SM BKN040
  FM072300 17005KT P6SM BKN045


METAR
KIAD 070026Z 33007KT 3SM -DZ BR SCT008 BKN013 OVC023 11/09 A2970 RMK AO2 RAE2358DZB22 P0000 T01060094
KIAD 070022Z 33007KT 1 1/2SM -DZ BR BKN011 OVC022 11/09 A2970 RMK AO2 SFC VIS 2 1/2 RAE2358DZB22 P0000 T01110094
KIAD 062352Z 30011KT 9SM -RA BKN015 BKN030 OVC050 11/09 A2969 RMK AO2 SLP053 P0003 60040 T01110094 10117 20100 51006
KIAD 062329Z 30009KT 7SM -RA SCT011 BKN022 OVC040 11/09 A2968 RMK AO2 P0003 T01110094

TAF/METAR Board Legend

Potential Impact
  None Marginal Slight Moderate High
Visibility (sm) >5 3≤X≤5 1≤X<3 0.5≤X<1 <0.5
Ceiling (100 ft) >30 10≤X≤30 4≤X<10 2≤X<4 <2
Wind Speed (kt) <10 10≤X<20 20≤X<30 ≥30
Wind Gust (kt) <15 15≤X<25 25≤X<35 ≥35
Weather No Wx Reported VCTS -TS,-FZRA TS,FZRA +TS,+FZRA




Page loaded:  00:29 UTC  |   05:29 PM Pacific  |   06:29 PM Mountain  |   07:29 PM Central  |   08:29 PM Eastern